Terminal Aerodrome Forecast
Issued by NWS

Home | Current Version | Previous Version | Text Only | Print | Product List | Glossary On
Versions: 1 2 3 4 5 6 7 8 9 10 11 12 13 14 15 16 17 18 19
601
FTUS43 KIWX 140520
TAFSBN
TAF
KSBN 140520Z 1406/1506 VRB03KT P6SM BKN035
     FM141400 14010KT P6SM SCT120 OVC200
     FM141900 13012G18KT 3SM -SN OVC030
     FM142000 12012G18KT 1 1/2SM -SN OVC015
     FM150300 15008KT 3SM -SN SCT010 OVC020=

USA.gov is the U.S. government's official web portal to all federal, state and local government web resources and services.